sensor_id;sensor_type;location;lat;lon;timestamp;temperature;humidity
8736;DHT22;4404;49.308;12.178;2022-11-21T00:03:10;4.00;99.90
8736;DHT22;4404;49.308;12.178;2022-11-21T00:09:14;4.00;99.90
8736;DHT22;4404;49.308;12.178;2022-11-21T00:15:16;4.10;99.90
8736;DHT22;4404;49.308;12.178;2022-11-21T00:21:19;4.10;99.90
8736;DHT22;4404;49.308;12.178;2022-11-21T00:27:23;4.00;99.90
8736;DHT22;4404;49.308;12.178;2022-11-21T00:33:25;4.10;99.90
8736;DHT22;4404;49.308;12.178;2022-11-21T00:39:28;4.20;99.90
8736;DHT22;4404;49.308;12.178;2022-11-21T00:45:32;4.30;99.90
8736;DHT22;4404;49.308;12.178;2022-11-21T00:51:34;4.20;99.90
8736;DHT22;4404;49.308;12.178;2022-11-21T00:57:36;4.30;99.90
8736;DHT22;4404;49.308;12.178;2022-11-21T01:03:41;4.30;99.90
8736;DHT22;4404;49.308;12.178;2022-11-21T01:09:45;4.20;99.90
8736;DHT22;4404;49.308;12.178;2022-11-21T01:15:48;4.20;99.90
8736;DHT22;4404;49.308;12.178;2022-11-21T01:21:52;4.30;99.90
8736;DHT22;4404;49.308;12.178;2022-11-21T01:27:54;4.40;99.90
8736;DHT22;4404;49.308;12.178;2022-11-21T01:33:58;4.50;99.90
8736;DHT22;4404;49.308;12.178;2022-11-21T01:40:03;4.40;99.90
8736;DHT22;4404;49.308;12.178;2022-11-21T01:46:11;4.40;99.90
8736;DHT22;4404;49.308;12.178;2022-11-21T01:52:18;4.60;99.90
8736;DHT22;4404;49.308;12.178;2022-11-21T01:58:24;4.60;99.90
8736;DHT22;4404;49.308;12.178;2022-11-21T02:04:30;4.60;99.90
8736;DHT22;4404;49.308;12.178;2022-11-21T02:10:36;4.60;99.90
8736;DHT22;4404;49.308;12.178;2022-11-21T02:16:44;4.70;99.90
8736;DHT22;4404;49.308;12.178;2022-11-21T02:22:51;4.70;99.90
8736;DHT22;4404;49.308;12.178;2022-11-21T02:28:58;4.60;99.90
8736;DHT22;4404;49.308;12.178;2022-11-21T02:35:01;4.60;99.90
8736;DHT22;4404;49.308;12.178;2022-11-21T02:41:10;4.70;99.90
8736;DHT22;4404;49.308;12.178;2022-11-21T02:47:16;4.70;99.90
8736;DHT22;4404;49.308;12.178;2022-11-21T02:53:18;4.70;99.90
8736;DHT22;4404;49.308;12.178;2022-11-21T02:59:21;4.70;99.90
8736;DHT22;4404;49.308;12.178;2022-11-21T03:05:25;4.70;99.90
8736;DHT22;4404;49.308;12.178;2022-11-21T03:11:28;4.80;99.90
8736;DHT22;4404;49.308;12.178;2022-11-21T03:17:30;4.70;99.90
8736;DHT22;4404;49.308;12.178;2022-11-21T03:23:34;4.70;99.90
8736;DHT22;4404;49.308;12.178;2022-11-21T03:29:36;4.70;99.90
8736;DHT22;4404;49.308;12.178;2022-11-21T03:35:39;4.70;99.90
8736;DHT22;4404;49.308;12.178;2022-11-21T03:41:45;4.70;99.90
8736;DHT22;4404;49.308;12.178;2022-11-21T03:47:49;4.70;99.90
8736;DHT22;4404;49.308;12.178;2022-11-21T03:53:51;4.70;99.90
8736;DHT22;4404;49.308;12.178;2022-11-21T03:59:55;4.70;99.90
8736;DHT22;4404;49.308;12.178;2022-11-21T04:05:58;4.60;99.90
8736;DHT22;4404;49.308;12.178;2022-11-21T04:12:01;4.60;99.90
8736;DHT22;4404;49.308;12.178;2022-11-21T04:18:05;4.60;99.90
8736;DHT22;4404;49.308;12.178;2022-11-21T04:24:08;4.70;99.90
8736;DHT22;4404;49.308;12.178;2022-11-21T04:30:11;4.80;99.90
8736;DHT22;4404;49.308;12.178;2022-11-21T04:36:15;4.70;99.90
8736;DHT22;4404;49.308;12.178;2022-11-21T04:42:18;4.50;99.90
8736;DHT22;4404;49.308;12.178;2022-11-21T04:48:20;4.60;99.90
8736;DHT22;4404;49.308;12.178;2022-11-21T04:54:24;4.60;99.90
8736;DHT22;4404;49.308;12.178;2022-11-21T05:00:26;4.50;99.90
8736;DHT22;4404;49.308;12.178;2022-11-21T05:06:29;4.60;99.90
8736;DHT22;4404;49.308;12.178;2022-11-21T05:12:33;4.60;99.90
8736;DHT22;4404;49.308;12.178;2022-11-21T05:18:53;4.70;99.90
8736;DHT22;4404;49.308;12.178;2022-11-21T05:24:55;4.80;99.90
8736;DHT22;4404;49.308;12.178;2022-11-21T05:31:00;4.70;99.90
8736;DHT22;4404;49.308;12.178;2022-11-21T05:37:04;4.60;99.90
8736;DHT22;4404;49.308;12.178;2022-11-21T05:43:08;4.70;99.90
8736;DHT22;4404;49.308;12.178;2022-11-21T05:49:30;4.60;99.90
8736;DHT22;4404;49.308;12.178;2022-11-21T05:55:33;4.60;99.90
8736;DHT22;4404;49.308;12.178;2022-11-21T06:01:36;4.60;99.90
8736;DHT22;4404;49.308;12.178;2022-11-21T06:07:57;4.70;99.90
8736;DHT22;4404;49.308;12.178;2022-11-21T06:13:59;4.70;99.90
8736;DHT22;4404;49.308;12.178;2022-11-21T06:20:02;4.80;99.90
8736;DHT22;4404;49.308;12.178;2022-11-21T06:26:07;4.70;99.90
8736;DHT22;4404;49.308;12.178;2022-11-21T06:32:13;4.70;99.90
8736;DHT22;4404;49.308;12.178;2022-11-21T06:38:15;4.70;99.90
8736;DHT22;4404;49.308;12.178;2022-11-21T06:44:21;4.70;99.90
8736;DHT22;4404;49.308;12.178;2022-11-21T06:50:24;4.70;99.90
8736;DHT22;4404;49.308;12.178;2022-11-21T06:56:28;4.80;99.90
8736;DHT22;4404;49.308;12.178;2022-11-21T07:02:33;4.80;99.90
8736;DHT22;4404;49.308;12.178;2022-11-21T07:08:36;4.70;99.90
8736;DHT22;4404;49.308;12.178;2022-11-21T07:14:40;4.80;99.90
8736;DHT22;4404;49.308;12.178;2022-11-21T07:20:44;4.80;99.90
8736;DHT22;4404;49.308;12.178;2022-11-21T07:26:48;4.90;99.90
8736;DHT22;4404;49.308;12.178;2022-11-21T07:32:54;4.80;99.90
8736;DHT22;4404;49.308;12.178;2022-11-21T07:38:58;4.90;99.90
8736;DHT22;4404;49.308;12.178;2022-11-21T07:45:01;4.90;99.90
8736;DHT22;4404;49.308;12.178;2022-11-21T07:51:04;4.90;99.90
8736;DHT22;4404;49.308;12.178;2022-11-21T07:57:08;4.90;99.90
8736;DHT22;4404;49.308;12.178;2022-11-21T08:03:11;5.00;99.90
8736;DHT22;4404;49.308;12.178;2022-11-21T08:09:14;4.90;99.90
8736;DHT22;4404;49.308;12.178;2022-11-21T08:15:18;4.90;99.90
8736;DHT22;4404;49.308;12.178;2022-11-21T08:21:20;4.90;99.90
8736;DHT22;4404;49.308;12.178;2022-11-21T08:27:23;5.00;99.90
8736;DHT22;4404;49.308;12.178;2022-11-21T08:33:27;5.10;99.90
8736;DHT22;4404;49.308;12.178;2022-11-21T08:39:29;5.10;99.90
8736;DHT22;4404;49.308;12.178;2022-11-21T08:45:32;5.10;99.90
8736;DHT22;4404;49.308;12.178;2022-11-21T08:51:36;5.00;99.90
8736;DHT22;4404;49.308;12.178;2022-11-21T08:57:39;5.10;99.90
8736;DHT22;4404;49.308;12.178;2022-11-21T09:03:42;5.20;99.90
8736;DHT22;4404;49.308;12.178;2022-11-21T09:09:47;5.30;99.90
8736;DHT22;4404;49.308;12.178;2022-11-21T09:15:50;5.50;99.90
8736;DHT22;4404;49.308;12.178;2022-11-21T09:22:10;5.50;99.90
8736;DHT22;4404;49.308;12.178;2022-11-21T09:28:14;5.60;99.90
8736;DHT22;4404;49.308;12.178;2022-11-21T09:34:17;6.00;99.90
8736;DHT22;4404;49.308;12.178;2022-11-21T09:40:20;6.00;99.90
8736;DHT22;4404;49.308;12.178;2022-11-21T09:46:26;6.10;99.90
8736;DHT22;4404;49.308;12.178;2022-11-21T09:52:37;6.40;99.90
8736;DHT22;4404;49.308;12.178;2022-11-21T09:58:44;6.40;99.90
8736;DHT22;4404;49.308;12.178;2022-11-21T10:04:54;6.20;99.90
8736;DHT22;4404;49.308;12.178;2022-11-21T10:11:10;6.10;99.90
8736;DHT22;4404;49.308;12.178;2022-11-21T10:17:23;6.00;99.90
8736;DHT22;4404;49.308;12.178;2022-11-21T10:23:57;6.00;99.90
8736;DHT22;4404;49.308;12.178;2022-11-21T10:30:17;6.00;99.90
8736;DHT22;4404;49.308;12.178;2022-11-21T10:36:32;6.10;99.90
8736;DHT22;4404;49.308;12.178;2022-11-21T10:42:50;6.10;99.90
8736;DHT22;4404;49.308;12.178;2022-11-21T10:48:57;6.20;99.90
8736;DHT22;4404;49.308;12.178;2022-11-21T10:55:08;6.20;99.90
8736;DHT22;4404;49.308;12.178;2022-11-21T11:01:22;6.60;99.90
8736;DHT22;4404;49.308;12.178;2022-11-21T11:07:27;7.00;99.90
8736;DHT22;4404;49.308;12.178;2022-11-21T11:13:30;7.10;99.90
8736;DHT22;4404;49.308;12.178;2022-11-21T11:19:38;7.10;99.90
8736;DHT22;4404;49.308;12.178;2022-11-21T11:25:45;7.00;99.90
8736;DHT22;4404;49.308;12.178;2022-11-21T11:31:52;7.10;99.90
8736;DHT22;4404;49.308;12.178;2022-11-21T11:38:00;7.40;99.90
8736;DHT22;4404;49.308;12.178;2022-11-21T11:44:12;7.60;99.90
8736;DHT22;4404;49.308;12.178;2022-11-21T11:50:39;7.80;99.90
8736;DHT22;4404;49.308;12.178;2022-11-21T11:56:47;8.00;99.90
8736;DHT22;4404;49.308;12.178;2022-11-21T12:02:56;7.90;99.90
8736;DHT22;4404;49.308;12.178;2022-11-21T12:09:05;7.90;99.90
8736;DHT22;4404;49.308;12.178;2022-11-21T12:15:17;8.10;99.90
8736;DHT22;4404;49.308;12.178;2022-11-21T12:21:39;8.00;99.90
8736;DHT22;4404;49.308;12.178;2022-11-21T12:27:44;8.00;99.90
8736;DHT22;4404;49.308;12.178;2022-11-21T12:34:04;8.00;99.90
8736;DHT22;4404;49.308;12.178;2022-11-21T12:40:32;8.00;99.90
8736;DHT22;4404;49.308;12.178;2022-11-21T12:46:50;7.60;99.90
8736;DHT22;4404;49.308;12.178;2022-11-21T12:53:06;7.60;99.90
8736;DHT22;4404;49.308;12.178;2022-11-21T12:59:37;7.70;99.90
8736;DHT22;4404;49.308;12.178;2022-11-21T13:05:47;7.80;99.90
8736;DHT22;4404;49.308;12.178;2022-11-21T13:11:59;7.70;99.90
8736;DHT22;4404;49.308;12.178;2022-11-21T13:18:15;7.60;99.90
8736;DHT22;4404;49.308;12.178;2022-11-21T13:24:55;7.40;99.90
8736;DHT22;4404;49.308;12.178;2022-11-21T13:31:02;7.30;99.90
8736;DHT22;4404;49.308;12.178;2022-11-21T13:37:59;7.00;99.90
8736;DHT22;4404;49.308;12.178;2022-11-21T13:44:35;6.90;99.90
8736;DHT22;4404;49.308;12.178;2022-11-21T13:51:13;7.00;99.90
8736;DHT22;4404;49.308;12.178;2022-11-21T13:57:50;6.90;99.90
8736;DHT22;4404;49.308;12.178;2022-11-21T14:04:23;6.70;99.90
8736;DHT22;4404;49.308;12.178;2022-11-21T14:10:57;6.70;99.90
8736;DHT22;4404;49.308;12.178;2022-11-21T14:17:15;6.60;99.90
8736;DHT22;4404;49.308;12.178;2022-11-21T14:23:29;6.70;99.90
8736;DHT22;4404;49.308;12.178;2022-11-21T14:29:39;6.70;99.90
8736;DHT22;4404;49.308;12.178;2022-11-21T14:35:46;6.80;99.90
8736;DHT22;4404;49.308;12.178;2022-11-21T14:41:50;6.80;99.90
8736;DHT22;4404;49.308;12.178;2022-11-21T14:47:54;6.90;99.90
8736;DHT22;4404;49.308;12.178;2022-11-21T14:53:57;6.90;99.90
8736;DHT22;4404;49.308;12.178;2022-11-21T14:59:59;6.90;99.90
8736;DHT22;4404;49.308;12.178;2022-11-21T15:06:04;6.80;99.90
8736;DHT22;4404;49.308;12.178;2022-11-21T15:12:13;6.80;99.90
8736;DHT22;4404;49.308;12.178;2022-11-21T15:18:22;6.60;99.90
8736;DHT22;4404;49.308;12.178;2022-11-21T15:24:33;6.40;99.90
8736;DHT22;4404;49.308;12.178;2022-11-21T15:30:39;6.20;99.90
8736;DHT22;4404;49.308;12.178;2022-11-21T15:36:42;6.10;99.90
8736;DHT22;4404;49.308;12.178;2022-11-21T15:42:47;5.90;99.90
8736;DHT22;4404;49.308;12.178;2022-11-21T15:48:51;5.80;99.90
8736;DHT22;4404;49.308;12.178;2022-11-21T15:54:54;5.70;99.90
8736;DHT22;4404;49.308;12.178;2022-11-21T16:00:58;5.70;99.90
8736;DHT22;4404;49.308;12.178;2022-11-21T16:07:01;5.50;99.90
8736;DHT22;4404;49.308;12.178;2022-11-21T16:13:03;5.40;99.90
8736;DHT22;4404;49.308;12.178;2022-11-21T16:19:09;5.20;99.90
8736;DHT22;4404;49.308;12.178;2022-11-21T16:25:11;5.00;99.90
8736;DHT22;4404;49.308;12.178;2022-11-21T16:31:18;4.90;99.90
8736;DHT22;4404;49.308;12.178;2022-11-21T16:37:23;4.70;99.90
8736;DHT22;4404;49.308;12.178;2022-11-21T16:43:26;4.80;99.90
8736;DHT22;4404;49.308;12.178;2022-11-21T16:49:29;4.70;99.90
8736;DHT22;4404;49.308;12.178;2022-11-21T16:55:33;4.60;99.90
8736;DHT22;4404;49.308;12.178;2022-11-21T17:01:36;4.50;99.90
8736;DHT22;4404;49.308;12.178;2022-11-21T17:07:38;4.40;99.90
8736;DHT22;4404;49.308;12.178;2022-11-21T17:13:43;4.40;99.90
8736;DHT22;4404;49.308;12.178;2022-11-21T17:19:48;4.30;99.90
8736;DHT22;4404;49.308;12.178;2022-11-21T17:25:53;4.30;99.90
8736;DHT22;4404;49.308;12.178;2022-11-21T17:31:57;4.20;99.90
8736;DHT22;4404;49.308;12.178;2022-11-21T17:38:01;4.20;99.90
8736;DHT22;4404;49.308;12.178;2022-11-21T17:44:04;4.20;99.90
8736;DHT22;4404;49.308;12.178;2022-11-21T17:50:08;4.20;99.90
8736;DHT22;4404;49.308;12.178;2022-11-21T17:56:13;4.10;99.90
8736;DHT22;4404;49.308;12.178;2022-11-21T18:02:16;4.10;99.90
8736;DHT22;4404;49.308;12.178;2022-11-21T18:08:22;4.20;99.90
8736;DHT22;4404;49.308;12.178;2022-11-21T18:14:25;4.20;99.90
8736;DHT22;4404;49.308;12.178;2022-11-21T18:20:27;4.20;99.90
8736;DHT22;4404;49.308;12.178;2022-11-21T18:26:33;4.10;99.90
8736;DHT22;4404;49.308;12.178;2022-11-21T18:32:36;4.00;99.90
8736;DHT22;4404;49.308;12.178;2022-11-21T18:38:41;3.90;99.90
8736;DHT22;4404;49.308;12.178;2022-11-21T18:44:46;3.90;99.90
8736;DHT22;4404;49.308;12.178;2022-11-21T18:50:49;3.90;99.90
8736;DHT22;4404;49.308;12.178;2022-11-21T18:56:52;3.80;99.90
8736;DHT22;4404;49.308;12.178;2022-11-21T19:02:58;3.70;99.90
8736;DHT22;4404;49.308;12.178;2022-11-21T19:09:00;3.80;99.90
8736;DHT22;4404;49.308;12.178;2022-11-21T19:15:05;3.70;99.90
8736;DHT22;4404;49.308;12.178;2022-11-21T19:21:10;3.60;99.90
8736;DHT22;4404;49.308;12.178;2022-11-21T19:27:13;3.60;99.90
8736;DHT22;4404;49.308;12.178;2022-11-21T19:33:15;3.60;99.90
8736;DHT22;4404;49.308;12.178;2022-11-21T19:39:20;3.60;99.90
8736;DHT22;4404;49.308;12.178;2022-11-21T19:45:22;3.50;99.90
8736;DHT22;4404;49.308;12.178;2022-11-21T19:51:28;3.50;99.90
8736;DHT22;4404;49.308;12.178;2022-11-21T19:57:35;3.60;99.90
8736;DHT22;4404;49.308;12.178;2022-11-21T20:03:39;3.60;99.90
8736;DHT22;4404;49.308;12.178;2022-11-21T20:09:43;3.50;99.90
8736;DHT22;4404;49.308;12.178;2022-11-21T20:15:47;3.50;99.90
8736;DHT22;4404;49.308;12.178;2022-11-21T20:21:50;3.40;99.90
8736;DHT22;4404;49.308;12.178;2022-11-21T20:27:53;3.50;99.90
8736;DHT22;4404;49.308;12.178;2022-11-21T20:33:58;3.50;99.90
8736;DHT22;4404;49.308;12.178;2022-11-21T20:40:02;3.50;99.90
8736;DHT22;4404;49.308;12.178;2022-11-21T20:46:04;3.50;99.90
8736;DHT22;4404;49.308;12.178;2022-11-21T20:52:09;3.40;99.90
8736;DHT22;4404;49.308;12.178;2022-11-21T20:58:11;3.40;99.90
8736;DHT22;4404;49.308;12.178;2022-11-21T21:04:14;3.30;99.90
8736;DHT22;4404;49.308;12.178;2022-11-21T21:10:18;3.20;99.90
8736;DHT22;4404;49.308;12.178;2022-11-21T21:16:24;3.20;99.90
8736;DHT22;4404;49.308;12.178;2022-11-21T21:22:29;3.10;99.90
8736;DHT22;4404;49.308;12.178;2022-11-21T21:28:33;3.20;99.90
8736;DHT22;4404;49.308;12.178;2022-11-21T21:34:35;3.10;99.90
8736;DHT22;4404;49.308;12.178;2022-11-21T21:40:38;3.20;99.90
8736;DHT22;4404;49.308;12.178;2022-11-21T21:46:42;3.20;99.90
8736;DHT22;4404;49.308;12.178;2022-11-21T21:52:46;3.30;99.90
8736;DHT22;4404;49.308;12.178;2022-11-21T21:58:49;3.30;99.90
8736;DHT22;4404;49.308;12.178;2022-11-21T22:04:53;3.40;99.90
8736;DHT22;4404;49.308;12.178;2022-11-21T22:11:00;3.30;99.90
8736;DHT22;4404;49.308;12.178;2022-11-21T22:17:03;3.30;99.90
8736;DHT22;4404;49.308;12.178;2022-11-21T22:23:07;3.30;99.90
8736;DHT22;4404;49.308;12.178;2022-11-21T22:29:10;3.40;99.90
8736;DHT22;4404;49.308;12.178;2022-11-21T22:35:12;3.20;99.90
8736;DHT22;4404;49.308;12.178;2022-11-21T22:41:18;3.20;99.90
8736;DHT22;4404;49.308;12.178;2022-11-21T22:47:22;3.30;99.90
8736;DHT22;4404;49.308;12.178;2022-11-21T22:53:24;3.20;99.90
8736;DHT22;4404;49.308;12.178;2022-11-21T22:59:28;3.40;99.90
8736;DHT22;4404;49.308;12.178;2022-11-21T23:05:30;3.40;99.90
8736;DHT22;4404;49.308;12.178;2022-11-21T23:11:33;3.40;99.90
8736;DHT22;4404;49.308;12.178;2022-11-21T23:17:37;3.20;99.90
8736;DHT22;4404;49.308;12.178;2022-11-21T23:23:39;3.20;99.90
8736;DHT22;4404;49.308;12.178;2022-11-21T23:29:44;3.30;99.90
8736;DHT22;4404;49.308;12.178;2022-11-21T23:35:48;3.40;99.90
8736;DHT22;4404;49.308;12.178;2022-11-21T23:41:50;3.50;99.90
8736;DHT22;4404;49.308;12.178;2022-11-21T23:47:52;3.60;99.90
8736;DHT22;4404;49.308;12.178;2022-11-21T23:53:56;3.60;99.90
8736;DHT22;4404;49.308;12.178;2022-11-21T23:59:59;3.70;99.90
